Time;durP1;ratioP1;P1;durP2;ratioP2;P2;SDS_P1;SDS_P2;PMS_P1;PMS_P2;Temp;Humidity;BMP_temperature;BMP_pressure;BME280_temperature;BME280_humidity;BME280_pressure;Samples;Min_cycle;Max_cycle;Signal;HPM_P1;HPM_P2
2023/03/01 00:01:05;;;;;;;27.45;18.77;;;0.30;99.90;;;;;;4988745;28;20052;-60
2023/03/01 00:03:31;;;;;;;;;;;-0.30;99.90;;;;;;5008047;28;20049;-60
2023/03/01 00:05:57;;;;;;;27.40;19.58;;;0.30;99.90;;;;;;5006654;28;19991;-61
2023/03/01 00:08:22;;;;;;;26.83;18.98;;;-0.20;99.90;;;;;;5007665;28;20066;-61
2023/03/01 00:10:48;;;;;;;28.45;19.67;;;0.40;99.90;;;;;;5006668;28;20052;-60
2023/03/01 00:13:14;;;;;;;26.73;19.17;;;0.00;99.90;;;;;;4989780;28;20080;-61
2023/03/01 00:15:41;;;;;;;25.15;18.83;;;-0.20;99.90;;;;;;5006859;28;20108;-60
2023/03/01 00:18:08;;;;;;;27.15;19.15;;;-0.20;99.90;;;;;;5006886;28;20057;-61
2023/03/01 00:20:34;;;;;;;25.20;18.58;;;-0.10;99.90;;;;;;5006708;28;20628;-61
2023/03/01 00:23:00;;;;;;;26.40;18.92;;;-0.10;99.90;;;;;;4989066;28;20056;-60
2023/03/01 00:25:25;;;;;;;26.52;18.92;;;0.50;99.90;;;;;;4991471;28;20045;-60
2023/03/01 00:27:51;;;;;;;27.05;19.50;;;0.50;99.90;;;;;;5026650;28;20045;-61
2023/03/01 00:30:17;;;;;;;24.95;18.88;;;-0.10;99.90;;;;;;5008797;28;20483;-61
2023/03/01 00:32:42;;;;;;;24.58;18.55;;;-0.10;99.90;;;;;;5026440;28;20055;-60
2023/03/01 00:35:08;;;;;;;26.90;19.15;;;0.40;99.90;;;;;;5026534;28;20427;-60
2023/03/01 00:37:33;;;;;;;27.55;19.83;;;-0.10;99.90;;;;;;5026357;28;20042;-61
2023/03/01 00:39:59;;;;;;;26.27;18.98;;;0.00;99.90;;;;;;5025244;28;20077;-59
2023/03/01 00:42:25;;;;;;;27.63;20.30;;;-0.30;99.90;;;;;;5026774;28;20041;-60
2023/03/01 00:44:50;;;;;;;28.30;20.25;;;-0.30;99.90;;;;;;5022744;28;20512;-60
2023/03/01 00:47:16;;;;;;;28.63;19.83;;;-0.20;99.90;;;;;;5014695;28;20495;-61
2023/03/01 00:49:42;;;;;;;26.50;19.65;;;-0.40;99.90;;;;;;5006188;28;20501;-61
2023/03/01 00:52:07;;;;;;;25.92;19.27;;;-0.30;99.90;;;;;;4989195;28;20121;-61
2023/03/01 00:54:33;;;;;;;27.05;20.38;;;-0.20;99.90;;;;;;5005851;28;20091;-61
2023/03/01 00:56:58;;;;;;;26.73;19.65;;;-0.50;99.90;;;;;;5005669;28;20123;-59
2023/03/01 00:59:24;;;;;;;26.85;19.80;;;0.20;99.90;;;;;;5006554;28;20053;-61
2023/03/01 01:01:50;;;;;;;28.75;20.35;;;-0.60;99.90;;;;;;5006454;28;20042;-60
2023/03/01 01:04:15;;;;;;;27.77;19.88;;;-0.50;99.90;;;;;;5005425;28;20041;-60
2023/03/01 01:06:46;;;;;;;29.48;20.88;;;-0.60;99.90;;;;;;5006479;28;20554;-58
2023/03/01 01:09:18;;;;;;;28.55;20.70;;;0.00;99.90;;;;;;5006080;28;20155;-61
2023/03/01 01:11:50;;;;;;;26.65;19.13;;;-0.20;99.90;;;;;;4987284;28;20196;-58
2023/03/01 01:14:16;;;;;;;26.65;19.58;;;-0.20;99.90;;;;;;5005887;28;20057;-60
2023/03/01 01:16:42;;;;;;;26.45;19.52;;;-0.40;99.90;;;;;;5005761;28;20041;-60
2023/03/01 01:19:10;;;;;;;25.48;19.58;;;-0.10;99.90;;;;;;4986877;28;20511;-59
2023/03/01 01:21:36;;;;;;;25.05;19.17;;;0.10;99.90;;;;;;5005850;28;20078;-60
2023/03/01 01:24:04;;;;;;;27.63;20.45;;;-0.20;99.90;;;;;;5025099;28;20127;-59
2023/03/01 01:26:32;;;;;;;27.40;20.63;;;0.00;99.90;;;;;;5007166;28;20045;-60
2023/03/01 01:28:59;;;;;;;29.77;21.70;;;-0.20;99.90;;;;;;5024285;28;20048;-60
2023/03/01 01:31:27;;;;;;;30.17;21.67;;;-0.80;99.90;;;;;;5025497;28;20041;-60
2023/03/01 01:33:54;;;;;;;30.92;22.75;;;-0.60;99.90;;;;;;5006765;28;20202;-61
2023/03/01 01:36:20;;;;;;;27.45;20.75;;;-0.40;99.90;;;;;;5024577;28;20041;-60
2023/03/01 01:38:46;;;;;;;28.52;19.98;;;0.00;99.90;;;;;;5024724;28;20162;-62
2023/03/01 01:41:13;;;;;;;28.67;20.00;;;-0.30;99.90;;;;;;5023937;28;20548;-61
2023/03/01 01:43:42;;;;;;;29.45;19.95;;;-0.40;99.90;;;;;;5024097;28;20389;-61
2023/03/01 01:46:27;;;;;;;27.00;19.35;;;-0.40;99.90;;;;;;5018671;28;20049;-61
2023/03/01 01:49:04;;;;;;;24.15;18.20;;;-0.30;99.90;;;;;;4986903;28;20556;-61
2023/03/01 01:51:38;;;;;;;26.95;18.55;;;-0.60;99.90;;;;;;5006003;28;20046;-61
2023/03/01 01:54:12;;;;;;;27.25;19.55;;;-0.40;99.90;;;;;;5004688;28;20107;-59
2023/03/01 01:56:40;;;;;;;28.60;19.85;;;-0.80;99.90;;;;;;5005065;28;20394;-61
2023/03/01 01:59:06;;;;;;;28.30;20.05;;;-0.90;99.90;;;;;;5005553;28;20048;-60
2023/03/01 02:01:32;;;;;;;27.95;19.77;;;-0.40;99.90;;;;;;5005362;28;20033;-61
2023/03/01 02:03:58;;;;;;;27.60;19.85;;;1.30;99.90;;;;;;4993000;28;20049;-61
2023/03/01 02:06:36;;;;;;;27.70;19.45;;;-1.00;99.90;;;;;;5011856;28;20111;-61
2023/03/01 02:09:07;;;;;;;26.63;19.58;;;-1.10;99.90;;;;;;4993868;28;20052;-61
2023/03/01 02:11:33;;;;;;;28.27;19.50;;;-0.50;99.90;;;;;;5011486;28;20045;-60
2023/03/01 02:14:00;;;;;;;28.00;20.48;;;-0.60;99.90;;;;;;5012001;28;20042;-61
2023/03/01 02:16:26;;;;;;;29.25;19.67;;;-1.00;99.90;;;;;;5011508;28;20046;-61
2023/03/01 02:18:53;;;;;;;31.13;20.48;;;-0.90;99.90;;;;;;5012060;28;20060;-60
2023/03/01 02:21:47;;;;;;;30.63;20.38;;;-1.20;99.90;;;;;;5011840;28;20046;-61
2023/03/01 02:24:21;;;;;;;29.25;19.98;;;-0.50;99.90;;;;;;5011887;28;20519;-60
2023/03/01 02:26:51;;;;;;;25.88;18.73;;;-0.40;99.90;;;;;;4994614;28;20056;-61
2023/03/01 02:29:17;;;;;;;28.83;19.20;;;-0.90;99.90;;;;;;4993906;28;20042;-62
2023/03/01 02:31:43;;;;;;;28.38;19.48;;;-1.30;99.90;;;;;;5011641;28;20515;-62
2023/03/01 02:34:13;;;;;;;28.42;19.92;;;-1.20;99.90;;;;;;5011547;28;20085;-62
2023/03/01 02:36:53;;;;;;;28.25;20.30;;;-1.30;99.90;;;;;;5011099;28;20045;-61
2023/03/01 02:39:23;;;;;;;30.15;20.48;;;-1.40;99.90;;;;;;5011074;28;20051;-61
2023/03/01 02:41:55;;;;;;;33.20;21.98;;;-1.40;99.90;;;;;;5010962;28;20048;-60
2023/03/01 02:44:21;;;;;;;29.98;20.83;;;-0.90;99.90;;;;;;5011667;28;20050;-61
2023/03/01 02:46:50;;;;;;;30.42;20.90;;;-1.20;99.90;;;;;;5022143;28;20100;-61
2023/03/01 02:49:20;;;;;;;32.80;22.00;;;-0.60;99.90;;;;;;5011183;28;20045;-60
2023/03/01 02:52:10;;;;;;;31.05;20.73;;;-1.20;99.90;;;;;;5011757;28;20666;-60
2023/03/01 02:54:54;;;;;;;32.78;21.75;;;-1.20;99.90;;;;;;5010362;28;20076;-61
2023/03/01 02:57:21;;;;;;;32.67;22.65;;;-1.00;99.90;;;;;;5011451;28;20404;-60
2023/03/01 02:59:49;;;;;;;30.67;21.50;;;-0.80;99.90;;;;;;5010201;28;20056;-57
2023/03/01 03:02:36;;;;;;;29.83;21.33;;;-0.70;99.90;;;;;;5011032;28;20057;-60
2023/03/01 03:05:12;;;;;;;31.13;21.45;;;-0.70;99.90;;;;;;5011535;28;20042;-61
2023/03/01 03:07:40;;;;;;;34.25;22.08;;;-0.70;99.90;;;;;;5010812;28;20053;-60
2023/03/01 03:10:12;;;;;;;30.73;21.00;;;-0.60;99.90;;;;;;5010605;28;20061;-61
2023/03/01 03:12:38;;;;;;;31.23;21.17;;;-1.00;99.90;;;;;;5010589;28;20404;-60
2023/03/01 03:15:08;;;;;;;31.13;21.38;;;-1.20;99.90;;;;;;5008550;28;20101;-60
2023/03/01 03:17:39;;;;;;;27.10;19.08;;;-0.80;99.90;;;;;;5008414;28;20121;-59
2023/03/01 03:20:10;;;;;;;28.73;20.55;;;-0.60;99.90;;;;;;4990654;28;20393;-59
2023/03/01 03:22:37;;;;;;;29.23;19.70;;;-1.30;99.90;;;;;;5008640;28;20050;-61
2023/03/01 03:25:03;;;;;;;29.67;20.67;;;-0.70;99.90;;;;;;5093984;22;20076;-60
2023/03/01 03:27:28;;;;;;;29.08;20.13;;;-1.30;99.90;;;;;;5026324;28;20045;-60
2023/03/01 03:29:54;;;;;;;31.73;21.02;;;-1.10;99.90;;;;;;5026670;28;20102;-61
2023/03/01 03:32:19;;;;;;;31.77;20.27;;;-0.80;99.90;;;;;;5027543;28;20497;-60
2023/03/01 03:34:45;;;;;;;28.35;20.17;;;-1.50;99.90;;;;;;5009872;28;20130;-61
2023/03/01 03:38:01;;;;;;;31.25;21.50;;;-1.40;99.90;;;;;;5026613;28;20050;-61
2023/03/01 03:39:56;;;;;;;28.65;20.55;;;-0.80;99.90;;;;;;5026055;28;20045;-61
2023/03/01 03:42:22;;;;;;;29.60;20.00;;;-1.20;99.90;;;;;;5008637;28;20504;-60
2023/03/01 03:44:48;;;;;;;28.85;19.80;;;-0.40;99.90;;;;;;5026627;28;20045;-60
2023/03/01 03:47:14;;;;;;;28.20;20.25;;;-0.90;99.90;;;;;;5027017;28;20745;-60
2023/03/01 03:49:39;;;;;;;32.75;21.63;;;-1.10;99.90;;;;;;5027150;28;20041;-61
2023/03/01 03:52:13;;;;;;;30.38;20.55;;;-1.60;99.90;;;;;;5027362;28;20654;-60
2023/03/01 03:54:40;;;;;;;28.55;20.25;;;-1.80;99.90;;;;;;5026424;28;20057;-59
2023/03/01 03:57:06;;;;;;;30.73;20.73;;;-1.00;99.90;;;;;;5009197;28;20049;-60
2023/03/01 03:59:32;;;;;;;28.77;21.02;;;-1.80;99.90;;;;;;5027199;28;20089;-60
2023/03/01 04:01:58;;;;;;;30.42;20.65;;;-1.10;99.90;;;;;;5026692;28;20073;-60
2023/03/01 04:04:23;;;;;;;29.23;20.25;;;-1.70;99.90;;;;;;5026299;28;20092;-61
2023/03/01 04:06:49;;;;;;;26.90;20.20;;;-1.70;99.90;;;;;;5026486;28;20040;-60
2023/03/01 04:09:14;;;;;;;27.48;20.52;;;-1.70;99.90;;;;;;5025810;28;20052;-60
2023/03/01 04:11:40;;;;;;;30.52;20.42;;;-1.30;99.90;;;;;;5024691;28;20073;-60
2023/03/01 04:14:06;;;;;;;30.58;20.80;;;-1.60;99.90;;;;;;5026767;28;20045;-60
2023/03/01 04:16:31;;;;;;;30.55;20.52;;;-1.60;99.90;;;;;;5026065;28;20042;-60
2023/03/01 04:18:59;;;;;;;30.20;20.02;;;-1.20;99.90;;;;;;5008744;28;20116;-60
2023/03/01 04:21:25;;;;;;;31.83;21.45;;;0.00;99.90;;;;;;5026170;28;20053;-60
2023/03/01 04:23:52;;;;;;;30.02;21.27;;;-1.80;99.90;;;;;;5025449;28;20137;-60
2023/03/01 04:26:19;;;;;;;31.20;20.63;;;-1.70;99.90;;;;;;5025203;28;20077;-60
2023/03/01 04:28:45;;;;;;;30.92;20.85;;;-1.40;99.90;;;;;;5025840;28;20069;-60
2023/03/01 04:31:18;;;;;;;31.38;20.92;;;-1.50;99.90;;;;;;5025847;28;20045;-60
2023/03/01 04:33:46;;;;;;;33.33;20.88;;;-1.30;99.90;;;;;;5025770;28;20045;-60
2023/03/01 04:36:13;;;;;;;32.85;20.40;;;-1.20;99.90;;;;;;5026029;28;20053;-59
2023/03/01 04:38:39;;;;;;;32.03;21.75;;;-1.40;99.90;;;;;;5025813;28;20403;-59
2023/03/01 04:41:07;;;;;;;32.67;21.90;;;-1.70;99.90;;;;;;5025094;28;20052;-60
2023/03/01 04:43:34;;;;;;;28.70;20.77;;;-1.90;99.90;;;;;;5026405;28;20037;-60
2023/03/01 04:46:02;;;;;;;35.13;21.95;;;-1.70;99.90;;;;;;5024566;28;20053;-58
2023/03/01 04:48:29;;;;;;;33.25;22.05;;;-1.80;99.90;;;;;;5026030;28;20063;-60
2023/03/01 04:50:54;;;;;;;32.65;22.23;;;-1.70;99.90;;;;;;5025462;28;20041;-60
2023/03/01 04:53:20;;;;;;;31.17;22.52;;;-1.50;99.90;;;;;;5025991;28;20504;-60
2023/03/01 04:55:45;;;;;;;33.85;22.38;;;-2.10;99.90;;;;;;5024924;28;20060;-60
2023/03/01 04:58:11;;;;;;;33.13;23.00;;;-1.40;99.90;;;;;;5026199;28;20049;-60
2023/03/01 05:00:37;;;;;;;35.38;23.05;;;-2.20;99.90;;;;;;5026548;28;20077;-60
2023/03/01 05:03:03;;;;;;;35.00;21.90;;;-2.00;99.90;;;;;;5025241;28;20453;-59
2023/03/01 05:05:34;;;;;;;36.17;21.25;;;-1.80;99.90;;;;;;5025661;28;20049;-60
2023/03/01 05:08:04;;;;;;;33.97;22.10;;;0.20;99.90;;;;;;5025363;28;20056;-60
2023/03/01 05:10:31;;;;;;;33.95;22.25;;;-2.20;99.90;;;;;;5023845;28;20080;-60
2023/03/01 05:12:57;;;;;;;33.70;22.80;;;-2.20;99.90;;;;;;5024887;28;20553;-60
2023/03/01 05:15:27;;;;;;;34.03;22.63;;;-2.20;99.90;;;;;;5024982;28;20524;-61
2023/03/01 05:17:58;;;;;;;33.15;21.80;;;-2.00;99.90;;;;;;5024300;28;20164;-60
2023/03/01 05:20:28;;;;;;;35.00;22.98;;;-2.30;99.90;;;;;;5024428;28;20053;-59
2023/03/01 05:22:56;;;;;;;37.10;23.50;;;-2.30;99.90;;;;;;5024823;28;20120;-59
2023/03/01 05:25:22;;;;;;;40.25;26.15;;;-2.00;99.90;;;;;;5023530;28;20085;-60
2023/03/01 05:27:48;;;;;;;38.88;25.38;;;-2.10;99.90;;;;;;5024973;28;20073;-60
2023/03/01 05:30:14;;;;;;;39.30;24.65;;;-1.60;99.90;;;;;;5025108;28;20167;-60
2023/03/01 05:32:48;;;;;;;39.03;26.30;;;-1.60;99.90;;;;;;5024705;28;20049;-59
2023/03/01 05:35:16;;;;;;;38.25;25.52;;;-1.80;99.90;;;;;;5024769;28;20080;-57
2023/03/01 05:37:44;;;;;;;39.88;24.60;;;-2.10;99.90;;;;;;5024742;28;20037;-60
2023/03/01 05:40:18;;;;;;;40.22;24.27;;;-2.30;99.90;;;;;;5024211;28;20072;-60
2023/03/01 05:42:54;;;;;;;37.50;25.40;;;-1.90;99.90;;;;;;5025471;28;20041;-60
2023/03/01 05:45:21;;;;;;;36.72;24.90;;;-1.50;99.90;;;;;;5023360;28;20053;-59
2023/03/01 05:47:48;;;;;;;38.20;24.17;;;-2.00;99.90;;;;;;5024230;28;20045;-60
2023/03/01 05:50:18;;;;;;;41.88;24.73;;;-1.20;99.90;;;;;;5024925;28;20034;-59
2023/03/01 05:52:50;;;;;;;39.15;24.85;;;-2.00;99.90;;;;;;5024857;28;20045;-60
2023/03/01 05:55:17;;;;;;;38.35;25.05;;;-2.30;99.90;;;;;;5024094;28;20041;-59
2023/03/01 05:57:43;;;;;;;36.13;24.73;;;-2.00;99.90;;;;;;5023421;28;20041;-60
2023/03/01 06:00:10;;;;;;;39.13;25.10;;;-2.00;99.90;;;;;;5006457;28;20482;-59
2023/03/01 06:02:37;;;;;;;39.28;25.67;;;-1.70;99.90;;;;;;5024372;28;20447;-61
2023/03/01 06:05:04;;;;;;;38.60;24.35;;;-1.60;99.90;;;;;;5024527;28;20045;-60
2023/03/01 06:07:30;;;;;;;38.30;26.05;;;-1.50;99.90;;;;;;5025257;28;20055;-61
2023/03/01 06:09:55;;;;;;;36.47;25.55;;;-1.90;99.90;;;;;;5023432;28;20045;-60
2023/03/01 06:12:21;;;;;;;38.72;25.95;;;-1.70;99.90;;;;;;5024384;28;20477;-60
2023/03/01 06:14:47;;;;;;;41.13;26.52;;;-2.00;99.90;;;;;;5024812;28;20504;-57
2023/03/01 06:17:13;;;;;;;39.90;26.15;;;-1.60;99.90;;;;;;5024239;28;20123;-60
2023/03/01 06:19:39;;;;;;;41.55;26.65;;;-1.60;99.90;;;;;;5024295;28;20049;-60
2023/03/01 06:22:04;;;;;;;36.80;25.23;;;-1.50;99.90;;;;;;5024178;28;20045;-59
2023/03/01 06:24:30;;;;;;;38.13;25.20;;;-2.00;99.90;;;;;;5023752;28;20088;-60
2023/03/01 06:26:56;;;;;;;40.90;26.67;;;-1.80;99.90;;;;;;5024503;28;20049;-61
2023/03/01 06:29:22;;;;;;;40.05;25.88;;;-1.50;99.90;;;;;;5024680;28;20076;-60
2023/03/01 06:31:48;;;;;;;39.67;26.83;;;-1.90;99.90;;;;;;5024305;28;20056;-59
2023/03/01 06:34:14;;;;;;;44.47;26.65;;;-1.70;99.90;;;;;;5024213;28;20034;-60
2023/03/01 06:36:40;;;;;;;39.42;25.73;;;-1.50;99.90;;;;;;5024655;28;20049;-58
2023/03/01 06:39:06;;;;;;;41.85;26.92;;;-2.20;99.90;;;;;;5024135;28;20705;-59
2023/03/01 06:41:33;;;;;;;36.83;25.27;;;-1.90;99.90;;;;;;5024278;28;20047;-60
2023/03/01 06:43:59;;;;;;;38.00;25.75;;;-1.40;99.90;;;;;;5024457;28;20042;-60
2023/03/01 06:46:25;;;;;;;43.05;27.88;;;-1.40;99.90;;;;;;5024078;28;20164;-58
2023/03/01 06:48:50;;;;;;;46.70;28.63;;;-1.30;99.90;;;;;;5025006;28;20065;-60
2023/03/01 06:51:16;;;;;;;52.78;28.95;;;-1.20;99.90;;;;;;5029070;28;20120;-61
2023/03/01 06:53:41;;;;;;;47.35;28.45;;;-1.80;99.90;;;;;;5027353;28;20038;-61
2023/03/01 06:56:07;;;;;;;51.53;29.92;;;-1.60;99.90;;;;;;5027648;28;20049;-61
2023/03/01 06:58:33;;;;;;;46.60;28.95;;;-1.70;99.90;;;;;;5027328;28;20507;-60
2023/03/01 07:00:59;;;;;;;48.60;28.02;;;-1.10;99.90;;;;;;5027549;28;20061;-61
2023/03/01 07:03:25;;;;;;;51.42;30.27;;;-1.00;99.90;;;;;;5010568;28;20172;-60
2023/03/01 07:05:52;;;;;;;54.00;29.60;;;-1.80;99.90;;;;;;5010517;28;20136;-60
2023/03/01 07:08:18;;;;;;;62.08;30.20;;;-1.00;99.90;;;;;;5027924;28;20116;-60
2023/03/01 07:10:44;;;;;;;50.22;29.15;;;-0.90;99.90;;;;;;5026807;28;20113;-60
2023/03/01 07:13:09;;;;;;;41.40;28.10;;;-0.90;99.90;;;;;;5027681;28;20132;-60
2023/03/01 07:15:35;;;;;;;47.38;28.70;;;-0.80;99.90;;;;;;5027028;28;20737;-60
2023/03/01 07:18:01;;;;;;;42.33;28.17;;;-1.30;99.90;;;;;;5027109;28;20048;-60
2023/03/01 07:20:27;;;;;;;49.42;28.02;;;-1.20;99.90;;;;;;5010057;28;20053;-60
2023/03/01 07:22:58;;;;;;;51.60;27.35;;;-1.00;99.90;;;;;;5027133;28;20060;-58
2023/03/01 07:25:24;;;;;;;164.02;29.63;;;-1.10;99.90;;;;;;5021874;28;20058;-60
2023/03/01 07:27:53;;;;;;;201.43;29.25;;;-0.80;99.90;;;;;;5008013;28;20494;-61
2023/03/01 07:30:20;;;;;;;40.28;29.25;;;-0.30;99.90;;;;;;5007320;28;20046;-60
2023/03/01 07:32:46;;;;;;;139.23;28.23;;;-0.30;99.90;;;;;;5007373;28;20049;-60
2023/03/01 07:35:12;;;;;;;123.25;26.85;;;-1.00;99.90;;;;;;5006973;28;20042;-61
2023/03/01 07:37:38;;;;;;;101.68;28.90;;;-0.30;99.90;;;;;;5007738;28;20064;-59
2023/03/01 07:40:04;;;;;;;96.47;27.15;;;-0.80;99.90;;;;;;5006144;28;20469;-61
2023/03/01 07:42:29;;;;;;;186.57;30.02;;;-1.00;99.90;;;;;;5007746;28;20388;-60
2023/03/01 07:44:55;;;;;;;130.82;27.48;;;-0.40;99.90;;;;;;5007056;28;20076;-59
2023/03/01 07:47:21;;;;;;;260.95;36.38;;;-0.90;99.90;;;;;;5007364;28;20046;-60
2023/03/01 07:49:46;;;;;;;175.13;35.90;;;-0.20;99.90;;;;;;5007103;28;20409;-59
2023/03/01 07:52:12;;;;;;;121.82;35.35;;;-0.40;99.90;;;;;;5007729;28;20424;-60
2023/03/01 07:54:39;;;;;;;240.98;34.58;;;-0.10;99.90;;;;;;5006559;28;20046;-59
2023/03/01 07:57:04;;;;;;;226.02;33.72;;;-0.90;99.90;;;;;;5006252;28;20045;-58
2023/03/01 07:59:31;;;;;;;285.30;35.92;;;-0.10;99.90;;;;;;5005447;28;20084;-60
2023/03/01 08:01:57;;;;;;;106.88;32.83;;;0.10;99.90;;;;;;5006180;28;20038;-60
2023/03/01 08:04:24;;;;;;;166.82;33.55;;;-0.10;99.90;;;;;;5006817;28;20566;-57
2023/03/01 08:06:51;;;;;;;102.07;32.33;;;-0.30;99.90;;;;;;5006729;28;20050;-61
2023/03/01 08:09:16;;;;;;;131.18;33.65;;;-0.10;99.90;;;;;;5005723;28;20054;-60
2023/03/01 08:11:42;;;;;;;123.40;31.60;;;-0.20;99.90;;;;;;5006238;28;20059;-59
2023/03/01 08:14:08;;;;;;;112.80;35.13;;;-1.00;99.90;;;;;;5007410;28;20048;-60
2023/03/01 08:16:35;;;;;;;91.05;27.80;;;-0.60;99.90;;;;;;5007177;28;20046;-61
2023/03/01 08:19:09;;;;;;;109.85;29.20;;;-0.20;99.90;;;;;;5006799;28;20145;-60
2023/03/01 08:21:35;;;;;;;133.32;31.15;;;-0.90;99.90;;;;;;5006831;28;20045;-59
2023/03/01 08:24:05;;;;;;;163.85;31.63;;;-0.10;99.90;;;;;;5012282;28;20570;-60
2023/03/01 08:26:32;;;;;;;111.65;31.88;;;0.10;99.90;;;;;;5026482;28;20057;-61
2023/03/01 08:28:59;;;;;;;124.00;33.60;;;0.50;99.90;;;;;;5008894;28;20422;-61
2023/03/01 08:31:39;;;;;;;65.63;30.17;;;0.30;99.90;;;;;;5026876;28;20037;-60
2023/03/01 08:34:08;;;;;;;55.70;26.17;;;1.20;99.90;;;;;;5025949;28;20120;-61
2023/03/01 08:36:44;;;;;;;91.82;29.17;;;0.20;99.90;;;;;;5026725;28;20053;-58
2023/03/01 08:39:13;;;;;;;69.57;26.90;;;0.00;99.90;;;;;;5025924;28;20053;-61
2023/03/01 08:41:40;;;;;;;38.47;24.33;;;0.40;99.90;;;;;;5026081;28;20037;-61
2023/03/01 08:44:06;;;;;;;49.58;26.10;;;-0.20;99.90;;;;;;5026476;28;20076;-60
2023/03/01 08:46:35;;;;;;;53.42;26.95;;;0.80;99.90;;;;;;5025053;28;20043;-61
2023/03/01 08:49:07;;;;;;;47.00;26.27;;;0.10;99.90;;;;;;5025801;28;20116;-61
2023/03/01 08:51:36;;;;;;;59.13;25.40;;;0.10;99.90;;;;;;5026481;28;20041;-61
2023/03/01 08:54:06;;;;;;;43.25;27.13;;;1.10;99.90;;;;;;5025783;28;20045;-60
2023/03/01 08:56:33;;;;;;;72.65;28.48;;;0.50;99.90;;;;;;5026110;28;20101;-61
2023/03/01 08:58:59;;;;;;;77.13;28.15;;;0.90;99.90;;;;;;5025785;28;20395;-61
2023/03/01 09:01:25;;;;;;;64.55;28.40;;;1.80;99.90;;;;;;5026453;28;20108;-61
2023/03/01 09:03:51;;;;;;;56.70;27.58;;;1.90;99.90;;;;;;5025037;28;20049;-60
2023/03/01 09:06:16;;;;;;;121.97;27.35;;;2.00;99.90;;;;;;5025455;28;20045;-60
2023/03/01 09:08:45;;;;;;;64.60;26.73;;;1.50;99.90;;;;;;5024628;28;20037;-58
2023/03/01 09:11:13;;;;;;;69.22;24.40;;;2.30;99.90;;;;;;5024775;28;20081;-60
2023/03/01 09:13:39;;;;;;;81.57;25.30;;;2.70;99.90;;;;;;5006680;28;20111;-61
2023/03/01 09:16:07;;;;;;;54.88;21.98;;;2.20;99.90;;;;;;5025587;28;20038;-61
2023/03/01 09:18:34;;;;;;;44.45;22.10;;;2.20;99.90;;;;;;5024770;28;20049;-60
2023/03/01 09:21:07;;;;;;;37.17;21.70;;;2.40;99.90;;;;;;4991031;28;20136;-61
2023/03/01 09:23:41;;;;;;;48.28;22.90;;;1.90;99.90;;;;;;5024360;28;20654;-61
2023/03/01 09:26:09;;;;;;;53.30;22.38;;;2.70;99.90;;;;;;5024551;28;20053;-59
2023/03/01 09:28:36;;;;;;;34.55;21.38;;;2.30;99.90;;;;;;5007313;28;20088;-60
2023/03/01 09:31:02;;;;;;;37.63;20.42;;;2.30;99.90;;;;;;5025783;28;20045;-60
2023/03/01 09:33:30;;;;;;;26.65;20.05;;;3.10;99.90;;;;;;5025175;28;20480;-60
2023/03/01 09:36:01;;;;;;;26.90;20.13;;;3.50;99.90;;;;;;5025780;28;20404;-61
2023/03/01 09:38:27;;;;;;;24.20;18.50;;;4.30;99.90;;;;;;5007456;28;20801;-61
2023/03/01 09:40:53;;;;;;;24.50;18.33;;;4.70;99.90;;;;;;5007242;28;20091;-61
2023/03/01 09:43:19;;;;;;;23.08;17.92;;;5.20;99.90;;;;;;5025382;28;20102;-61
2023/03/01 09:45:48;;;;;;;21.15;17.17;;;5.60;99.90;;;;;;5024741;28;20053;-62
2023/03/01 09:48:19;;;;;;;22.48;18.02;;;6.50;99.90;;;;;;5025649;28;20512;-61
2023/03/01 09:50:46;;;;;;;22.15;17.17;;;6.80;99.90;;;;;;5025202;28;20120;-62
2023/03/01 09:53:21;;;;;;;20.88;17.33;;;7.70;99.90;;;;;;5024636;28;20041;-62
2023/03/01 09:56:14;;;;;;;23.92;17.50;;;7.70;99.90;;;;;;5024841;28;20082;-61
2023/03/01 09:59:13;;;;;;;19.70;17.05;;;8.10;99.90;;;;;;5025292;28;20412;-65
2023/03/01 10:01:52;;;;;;;19.92;15.93;;;9.10;99.90;;;;;;5024964;28;20045;-63
2023/03/01 10:04:44;;;;;;;21.50;16.88;;;9.10;99.90;;;;;;5025180;28;20125;-63
2023/03/01 10:07:10;;;;;;;20.40;17.02;;;9.30;99.90;;;;;;5025262;28;20053;-64
2023/03/01 10:09:42;;;;;;;21.25;17.20;;;9.30;99.90;;;;;;5023929;28;20050;-65
2023/03/01 10:12:21;;;;;;;20.83;17.85;;;9.40;99.90;;;;;;5024905;28;20053;-63
2023/03/01 10:14:51;;;;;;;25.65;19.05;;;9.70;99.90;;;;;;5024702;28;20045;-64
2023/03/01 10:17:17;;;;;;;20.70;17.70;;;9.90;99.90;;;;;;5025090;28;20037;-65
2023/03/01 10:19:45;;;;;;;20.67;18.05;;;10.00;99.90;;;;;;5025062;28;20523;-64
2023/03/01 10:22:23;;;;;;;21.63;17.67;;;10.00;99.90;;;;;;5023860;28;20042;-62
2023/03/01 10:24:51;;;;;;;22.75;17.83;;;10.10;99.90;;;;;;5026576;28;20099;-65
2023/03/01 10:27:25;;;;;;;21.52;18.02;;;10.20;99.90;;;;;;5029066;28;20045;-62
2023/03/01 10:30:16;;;;;;;22.67;18.60;;;10.40;99.90;;;;;;5011114;28;20095;-63
2023/03/01 10:32:43;;;;;;;21.38;18.13;;;10.70;99.90;;;;;;5028075;28;20359;-65
2023/03/01 10:35:20;;;;;;;22.63;17.90;;;10.50;99.90;;;;;;5027988;28;20377;-65
2023/03/01 10:38:07;;;;;;;23.30;18.20;;;10.80;99.90;;;;;;5028774;28;20494;-65
2023/03/01 10:40:35;;;;;;;23.50;18.90;;;11.10;99.90;;;;;;5028697;28;20419;-60
2023/03/01 10:43:04;;;;;;;24.90;19.58;;;11.20;99.90;;;;;;5028771;28;20128;-64
2023/03/01 10:45:29;;;;;;;21.70;18.10;;;10.90;99.90;;;;;;5027619;28;20048;-65
2023/03/01 10:48:18;;;;;;;22.80;19.15;;;10.90;99.90;;;;;;5027946;28;20049;-64
2023/03/01 10:51:04;;;;;;;22.08;18.77;;;10.90;99.90;;;;;;5028413;28;20045;-65
2023/03/01 10:53:37;;;;;;;27.02;21.60;;;10.90;99.90;;;;;;5027634;28;20045;-65
2023/03/01 10:56:05;;;;;;;28.50;19.90;;;11.20;99.90;;;;;;5028329;28;20045;-65
2023/03/01 10:58:33;;;;;;;24.83;19.17;;;11.60;99.90;;;;;;5010370;28;20091;-62
2023/03/01 11:01:23;;;;;;;22.25;19.33;;;11.30;99.90;;;;;;5028756;28;20037;-64
2023/03/01 11:04:03;;;;;;;21.90;17.55;;;11.60;99.90;;;;;;5027337;28;20047;-65
2023/03/01 11:06:29;;;;;;;21.52;17.38;;;11.00;99.90;;;;;;5028855;28;20052;-65
2023/03/01 11:08:54;;;;;;;22.88;17.23;;;10.50;99.90;;;;;;5026954;28;20650;-61
2023/03/01 11:11:34;;;;;;;20.95;17.50;;;10.70;99.90;;;;;;5027944;28;20084;-65
2023/03/01 11:14:26;;;;;;;17.52;15.20;;;10.70;99.90;;;;;;5028334;28;20451;-66
2023/03/01 11:17:29;;;;;;;21.02;17.45;;;9.90;99.90;;;;;;5028118;28;20046;-66
2023/03/01 11:20:13;;;;;;;21.42;16.80;;;9.90;99.90;;;;;;5028242;28;20121;-64
2023/03/01 11:22:46;;;;;;;21.73;17.95;;;10.10;99.90;;;;;;5027025;28;20049;-63
2023/03/01 11:25:14;;;;;;;23.17;18.02;;;10.20;99.90;;;;;;5027296;28;20081;-64
2023/03/01 11:27:43;;;;;;;21.33;18.10;;;10.00;99.90;;;;;;5027694;28;20439;-62
2023/03/01 11:30:40;;;;;;;21.67;17.92;;;10.40;99.90;;;;;;5027363;28;20046;-64
2023/03/01 11:33:50;;;;;;;21.80;17.70;;;10.60;99.90;;;;;;5027755;28;20051;-67
2023/03/01 11:36:27;;;;;;;23.85;19.63;;;10.60;99.90;;;;;;5006945;28;20091;-66
2023/03/01 11:38:54;;;;;;;23.45;18.38;;;10.40;99.90;;;;;;5027072;28;20182;-66
2023/03/01 11:41:25;;;;;;;20.08;17.40;;;10.30;99.90;;;;;;5028035;28;20102;-65
2023/03/01 11:44:14;;;;;;;21.52;17.77;;;10.90;99.90;;;;;;5027366;28;20041;-71
2023/03/01 11:46:39;;;;;;;22.85;17.88;;;10.70;99.90;;;;;;5026733;28;20482;-68
2023/03/01 11:49:25;;;;;;;21.70;18.45;;;10.50;99.90;;;;;;5027308;28;20041;-68
2023/03/01 11:51:56;;;;;;;22.02;17.75;;;10.50;99.90;;;;;;4985986;28;20053;-65
2023/03/01 11:54:43;;;;;;;20.83;17.90;;;10.80;99.90;;;;;;5026666;28;20060;-67
2023/03/01 11:57:24;;;;;;;20.45;17.52;;;11.00;99.90;;;;;;5026972;28;20136;-68
2023/03/01 12:00:08;;;;;;;23.00;17.88;;;11.20;99.90;;;;;;5026430;28;20053;-69
2023/03/01 12:02:54;;;;;;;20.33;17.05;;;10.70;99.90;;;;;;5027157;28;20045;-62
2023/03/01 12:05:30;;;;;;;19.17;16.75;;;11.20;99.90;;;;;;5026474;28;20088;-68
2023/03/01 12:08:26;;;;;;;20.92;16.27;;;11.50;99.90;;;;;;5026179;28;20045;-65
2023/03/01 12:11:29;;;;;;;18.92;16.25;;;11.30;99.90;;;;;;5026809;28;20053;-67
2023/03/01 12:14:27;;;;;;;19.48;16.48;;;10.90;99.90;;;;;;5027081;28;20045;-69
2023/03/01 12:16:53;;;;;;;20.13;16.83;;;10.70;99.90;;;;;;5026506;28;20147;-69
2023/03/01 12:19:45;;;;;;;20.92;16.75;;;10.70;99.90;;;;;;5027092;28;20053;-68
2023/03/01 12:22:31;;;;;;;18.73;15.15;;;10.80;99.90;;;;;;5026355;28;20512;-61
2023/03/01 12:25:19;;;;;;;20.67;16.85;;;11.00;99.90;;;;;;5025883;28;20064;-66
2023/03/01 12:28:03;;;;;;;18.30;16.30;;;10.20;99.90;;;;;;5027065;28;20064;-64
2023/03/01 12:31:01;;;;;;;18.70;15.82;;;10.40;99.90;;;;;;5026677;28;20041;-69
2023/03/01 12:33:54;;;;;;;19.02;15.50;;;10.80;99.90;;;;;;4993877;28;20060;-63
2023/03/01 12:36:30;;;;;;;24.23;16.45;;;10.50;99.90;;;;;;5026109;28;20104;-66
2023/03/01 12:39:20;;;;;;;21.17;17.30;;;10.10;99.90;;;;;;5025704;28;20479;-69
2023/03/01 12:41:51;;;;;;;19.88;16.65;;;9.80;99.90;;;;;;5026597;28;20045;-67
2023/03/01 12:44:41;;;;;;;20.50;17.10;;;9.70;99.90;;;;;;5025876;28;20045;-67